createdAt,value
2023-09-14T00:01:27.420Z,10.73
2023-09-14T00:03:54.737Z,10.77
2023-09-14T00:06:30.232Z,10.80
2023-09-14T00:08:56.992Z,10.81
2023-09-14T00:11:26.546Z,10.80
2023-09-14T00:13:53.469Z,10.79
2023-09-14T00:16:26.357Z,10.77
2023-09-14T00:18:53.071Z,10.72
2023-09-14T00:21:22.163Z,10.73
2023-09-14T00:24:00.207Z,10.74
2023-09-14T00:26:29.357Z,10.66
2023-09-14T00:28:55.997Z,10.68
2023-09-14T00:31:28.465Z,10.66
2023-09-14T00:33:58.061Z,10.73
2023-09-14T00:36:31.387Z,10.69
2023-09-14T00:39:00.170Z,10.66
2023-09-14T00:41:30.156Z,10.59
2023-09-14T00:43:56.973Z,10.51
2023-09-14T00:46:28.101Z,10.48
2023-09-14T00:48:55.538Z,10.37
2023-09-14T00:51:30.545Z,10.17
2023-09-14T00:54:20.551Z,10.19
2023-09-14T00:56:57.003Z,10.06
2023-09-14T00:59:23.768Z,10.03
2023-09-14T01:01:59.605Z,10.00
2023-09-14T01:04:33.589Z,9.95
2023-09-14T01:07:00.331Z,9.94
2023-09-14T01:09:31.244Z,9.95
2023-09-14T01:11:58.765Z,9.92
2023-09-14T01:14:43.238Z,9.95
2023-09-14T01:17:55.699Z,9.92
2023-09-14T01:21:14.418Z,9.82
2023-09-14T01:24:42.100Z,9.71
2023-09-14T01:27:10.178Z,9.60
2023-09-14T01:29:36.780Z,9.62
2023-09-14T01:32:03.685Z,9.59
2023-09-14T01:34:30.504Z,9.61
2023-09-14T01:37:04.154Z,9.58
2023-09-14T01:39:35.013Z,9.60
2023-09-14T01:42:03.534Z,9.60
2023-09-14T01:44:34.269Z,9.58
2023-09-14T01:47:02.156Z,9.57
2023-09-14T01:49:35.122Z,9.51
2023-09-14T01:52:01.925Z,9.54
2023-09-14T01:54:32.119Z,9.48
2023-09-14T01:56:58.761Z,9.43
2023-09-14T01:59:30.313Z,9.38
2023-09-14T02:01:59.370Z,9.34
2023-09-14T02:04:26.064Z,9.27
2023-09-14T02:06:55.553Z,9.23
2023-09-14T02:09:26.513Z,9.18
2023-09-14T02:14:33.726Z,9.04
2023-09-14T02:17:00.464Z,9.04
2023-09-14T02:19:27.238Z,8.98
2023-09-14T02:22:01.364Z,9.01
2023-09-14T02:24:31.709Z,8.98
2023-09-14T02:27:04.723Z,9.05
2023-09-14T02:29:34.154Z,9.03
2023-09-14T02:32:00.844Z,9.06
2023-09-14T02:34:27.684Z,9.07
2023-09-14T02:37:05.102Z,9.08
2023-09-14T02:39:31.786Z,9.07
2023-09-14T02:42:01.558Z,9.05
2023-09-14T02:44:28.228Z,9.11
2023-09-14T02:47:02.370Z,9.12
2023-09-14T02:49:32.120Z,9.07
2023-09-14T02:52:02.182Z,9.10
2023-09-14T02:54:34.495Z,9.07
2023-09-14T02:57:03.897Z,9.09
2023-09-14T03:00:17.835Z,9.09
2023-09-14T03:02:46.281Z,9.03
2023-09-14T03:05:15.935Z,9.00
2023-09-14T03:07:42.638Z,8.99
2023-09-14T03:10:24.079Z,8.95
2023-09-14T03:12:53.430Z,8.95
2023-09-14T03:15:20.141Z,8.90
2023-09-14T03:17:46.895Z,8.91
2023-09-14T03:20:16.748Z,8.93
2023-09-14T03:22:43.394Z,8.92
2023-09-14T03:25:10.200Z,8.91
2023-09-14T03:27:37.835Z,8.90
2023-09-14T03:30:09.168Z,8.91
2023-09-14T03:32:35.831Z,8.86
2023-09-14T03:35:05.077Z,8.87
2023-09-14T03:37:37.451Z,8.91
2023-09-14T03:40:09.813Z,8.85
2023-09-14T03:42:36.791Z,8.84
2023-09-14T03:45:06.979Z,8.86
2023-09-14T03:47:36.975Z,8.85
2023-09-14T03:50:07.392Z,8.82
2023-09-14T03:52:39.904Z,8.80
2023-09-14T03:55:10.187Z,8.80
2023-09-14T03:57:37.882Z,8.76
2023-09-14T04:00:16.137Z,8.70
2023-09-14T04:02:44.861Z,8.72
2023-09-14T04:05:20.832Z,8.72
2023-09-14T04:07:50.674Z,8.69
2023-09-14T04:10:17.550Z,8.62
2023-09-14T04:12:53.533Z,8.68
2023-09-14T04:15:23.167Z,8.70
2023-09-14T04:17:49.894Z,8.74
2023-09-14T04:20:16.634Z,8.72
2023-09-14T04:22:44.176Z,8.69
2023-09-14T04:25:16.750Z,8.67
2023-09-14T04:27:43.412Z,8.66
2023-09-14T04:30:15.505Z,8.64
2023-09-14T04:32:42.655Z,8.61
2023-09-14T04:35:12.981Z,8.64
2023-09-14T04:37:42.457Z,8.65
2023-09-14T04:40:17.730Z,8.72
2023-09-14T04:42:47.190Z,8.71
2023-09-14T04:45:17.338Z,8.79
2023-09-14T04:47:44.045Z,8.77
2023-09-14T04:50:22.293Z,8.84
2023-09-14T04:52:55.224Z,8.92
2023-09-14T04:55:22.952Z,8.98
2023-09-14T04:57:49.934Z,9.03
2023-09-14T05:00:22.072Z,9.05
2023-09-14T05:02:51.001Z,9.07
2023-09-14T05:05:17.831Z,9.12
2023-09-14T05:07:44.532Z,9.18
2023-09-14T05:10:17.215Z,9.25
2023-09-14T05:12:46.404Z,9.37
2023-09-14T05:15:22.367Z,9.47
2023-09-14T05:17:55.641Z,9.56
2023-09-14T05:20:22.918Z,9.65
2023-09-14T05:22:49.545Z,9.77
2023-09-14T05:25:24.450Z,9.89
2023-09-14T05:27:51.208Z,10.00
2023-09-14T05:30:23.695Z,10.15
2023-09-14T05:32:50.519Z,10.32
2023-09-14T05:35:17.572Z,10.46
2023-09-14T05:37:44.290Z,10.59
2023-09-14T05:40:16.194Z,10.60
2023-09-14T05:42:42.998Z,10.68
2023-09-14T05:45:22.756Z,10.75
2023-09-14T05:47:49.626Z,10.69
2023-09-14T05:50:16.292Z,10.72
2023-09-14T05:52:43.580Z,10.77
2023-09-14T05:55:10.396Z,10.86
2023-09-14T05:57:44.314Z,10.95
2023-09-14T06:00:17.223Z,11.10
2023-09-14T06:02:44.121Z,11.21
2023-09-14T06:05:23.598Z,11.24
2023-09-14T06:07:58.226Z,11.29
2023-09-14T06:10:28.020Z,11.49
2023-09-14T06:12:54.859Z,11.72
2023-09-14T06:15:24.479Z,11.95
2023-09-14T06:17:58.030Z,12.24
2023-09-14T06:20:24.968Z,12.61
2023-09-14T06:22:51.568Z,13.05
2023-09-14T06:25:24.352Z,13.54
2023-09-14T06:27:51.064Z,14.22
2023-09-14T06:30:28.893Z,15.07
2023-09-14T06:32:55.617Z,15.88
2023-09-14T06:35:25.227Z,16.45
2023-09-14T06:37:51.872Z,17.07
2023-09-14T06:40:21.704Z,17.89
2023-09-14T06:42:51.790Z,18.54
2023-09-14T06:45:21.869Z,19.17
2023-09-14T06:47:48.686Z,19.73
2023-09-14T06:50:22.390Z,20.00
2023-09-14T06:52:49.298Z,20.12
2023-09-14T06:55:20.840Z,20.59
2023-09-14T06:57:47.705Z,20.57
2023-09-14T07:00:18.958Z,20.43
2023-09-14T07:02:45.676Z,20.59
2023-09-14T07:05:13.044Z,20.59
2023-09-14T07:07:44.093Z,20.50
2023-09-14T07:10:14.597Z,20.28
2023-09-14T07:12:44.222Z,20.00
2023-09-14T07:15:13.462Z,19.89
2023-09-14T07:17:40.094Z,20.74
2023-09-14T07:20:09.061Z,21.61
2023-09-14T07:22:35.687Z,22.30
2023-09-14T07:25:03.465Z,22.70
2023-09-14T07:27:30.143Z,23.04
2023-09-14T07:29:56.821Z,23.32
2023-09-14T07:32:23.586Z,23.56
2023-09-14T07:34:50.263Z,23.79
2023-09-14T07:37:17.048Z,23.71
2023-09-14T07:39:50.099Z,23.72
2023-09-14T07:42:17.533Z,23.75
2023-09-14T07:44:47.068Z,24.09
2023-09-14T07:47:21.948Z,24.06
2023-09-14T07:49:48.654Z,24.02
2023-09-14T07:52:18.434Z,23.92
2023-09-14T07:54:47.383Z,24.16
2023-09-14T07:57:16.788Z,24.10
2023-09-14T07:59:46.577Z,24.55
2023-09-14T08:02:13.243Z,24.59
2023-09-14T08:04:40.085Z,24.57
2023-09-14T08:07:06.827Z,24.61
2023-09-14T08:09:36.455Z,24.64
2023-09-14T08:12:05.166Z,24.60
2023-09-14T08:14:31.866Z,24.75
2023-09-14T08:17:01.347Z,24.31
2023-09-14T08:19:28.027Z,24.16
2023-09-14T08:21:54.824Z,24.34
2023-09-14T08:24:24.644Z,23.90
2023-09-14T08:26:52.159Z,23.83
2023-09-14T08:29:24.566Z,23.95
2023-09-14T08:31:51.594Z,23.48
2023-09-14T08:34:21.045Z,22.99
2023-09-14T08:36:50.828Z,22.79
2023-09-14T08:39:20.452Z,22.28
2023-09-14T08:41:48.233Z,22.48
2023-09-14T08:44:19.112Z,22.47
2023-09-14T08:46:52.931Z,22.71
2023-09-14T08:49:22.521Z,23.07
2023-09-14T08:51:52.429Z,22.91
2023-09-14T08:54:27.230Z,22.24
2023-09-14T08:56:54.102Z,21.90
2023-09-14T08:59:36.090Z,22.08
2023-09-14T09:02:04.196Z,22.27
2023-09-14T09:04:31.230Z,22.49
2023-09-14T09:06:58.959Z,22.39
2023-09-14T09:09:30.983Z,22.40
2023-09-14T09:11:57.976Z,22.47
2023-09-14T09:14:33.750Z,22.65
2023-09-14T09:17:00.678Z,22.61
2023-09-14T09:19:53.537Z,22.17
2023-09-14T09:22:30.363Z,22.18
2023-09-14T09:25:01.187Z,22.00
2023-09-14T09:27:30.605Z,21.70
2023-09-14T09:30:01.804Z,21.62
2023-09-14T09:32:28.642Z,21.34
2023-09-14T09:34:55.316Z,21.20
2023-09-14T09:37:46.567Z,21.51
2023-09-14T09:40:36.736Z,21.74
2023-09-14T09:43:08.730Z,21.83
2023-09-14T09:45:44.656Z,21.78
2023-09-14T09:48:15.385Z,21.46
2023-09-14T09:50:44.788Z,21.09
2023-09-14T09:53:16.026Z,20.89
2023-09-14T09:55:47.176Z,20.43
2023-09-14T09:58:18.456Z,19.99
2023-09-14T10:00:45.743Z,19.63
2023-09-14T10:03:19.413Z,19.35
2023-09-14T10:05:46.397Z,19.22
2023-09-14T10:08:24.845Z,19.40
2023-09-14T10:11:01.306Z,19.56
2023-09-14T10:13:32.550Z,19.93
2023-09-14T10:16:03.355Z,20.66
2023-09-14T10:18:37.376Z,21.35
2023-09-14T10:21:05.504Z,21.83
2023-09-14T10:23:35.729Z,22.02
2023-09-14T10:26:05.337Z,22.41
2023-09-14T10:28:38.482Z,22.63
2023-09-14T10:31:12.191Z,22.50
2023-09-14T10:33:44.860Z,22.53
2023-09-14T10:36:12.860Z,22.65
2023-09-14T10:38:47.329Z,22.63
2023-09-14T10:41:15.413Z,22.86
2023-09-14T10:43:42.702Z,22.90
2023-09-14T10:46:25.730Z,22.62
2023-09-14T10:48:57.998Z,22.78
2023-09-14T10:51:42.752Z,22.64
2023-09-14T10:54:12.034Z,22.50
2023-09-14T10:56:39.303Z,22.32
2023-09-14T10:59:12.588Z,22.27
2023-09-14T11:04:21.175Z,22.18
2023-09-14T11:06:59.479Z,22.16
2023-09-14T11:09:30.886Z,22.14
2023-09-14T11:11:59.759Z,22.18
2023-09-14T11:14:30.035Z,22.23
2023-09-14T11:17:02.301Z,22.41
2023-09-14T11:19:51.379Z,22.63
2023-09-14T11:22:29.918Z,22.54
2023-09-14T11:25:00.360Z,22.36
2023-09-14T11:27:37.405Z,22.47
2023-09-14T11:30:19.767Z,22.62
2023-09-14T11:32:58.496Z,22.68
2023-09-14T11:36:00.642Z,22.31
2023-09-14T11:38:33.891Z,21.78
2023-09-14T11:41:23.347Z,21.64
2023-09-14T11:46:41.717Z,21.06
2023-09-14T11:51:53.815Z,20.25
2023-09-14T11:54:21.458Z,19.90
2023-09-14T11:56:50.175Z,19.68
2023-09-14T11:59:43.276Z,19.96
2023-09-14T12:02:14.240Z,20.47
2023-09-14T12:04:41.457Z,20.89
2023-09-14T12:07:11.573Z,21.17
2023-09-14T12:09:44.032Z,21.48
2023-09-14T12:12:26.455Z,21.21
2023-09-14T12:15:00.297Z,20.81
2023-09-14T12:17:43.838Z,20.55
2023-09-14T12:20:12.580Z,20.54
2023-09-14T12:22:39.304Z,20.31
2023-09-14T12:25:07.412Z,20.13
2023-09-14T12:27:45.384Z,19.88
2023-09-14T12:30:14.029Z,19.68
2023-09-14T12:32:42.154Z,19.80
2023-09-14T12:35:13.761Z,20.33
2023-09-14T12:37:43.416Z,20.97
2023-09-14T12:40:13.915Z,21.49
2023-09-14T12:42:44.852Z,21.86
2023-09-14T12:45:21.585Z,21.73
2023-09-14T12:47:49.741Z,21.37
2023-09-14T12:50:19.404Z,21.04
2023-09-14T12:52:47.843Z,20.85
2023-09-14T12:55:17.931Z,20.71
2023-09-14T12:57:53.987Z,20.58
2023-09-14T13:00:35.160Z,20.28
2023-09-14T13:03:13.616Z,20.03
2023-09-14T13:05:49.595Z,20.48
2023-09-14T13:08:18.650Z,20.97
2023-09-14T13:10:47.486Z,21.03
2023-09-14T13:13:15.509Z,20.78
2023-09-14T13:15:46.006Z,20.42
2023-09-14T13:18:18.000Z,20.22
2023-09-14T13:21:10.308Z,20.10
2023-09-14T13:23:43.642Z,19.91
2023-09-14T13:26:21.817Z,20.08
2023-09-14T13:28:49.104Z,20.39
2023-09-14T13:31:19.502Z,20.41
2023-09-14T13:33:46.308Z,20.06
2023-09-14T13:36:13.256Z,19.93
2023-09-14T13:38:40.415Z,19.81
2023-09-14T13:41:26.851Z,19.69
2023-09-14T13:43:55.010Z,19.64
2023-09-14T13:46:21.839Z,19.57
2023-09-14T13:48:55.095Z,19.43
2023-09-14T13:51:21.811Z,19.36
2023-09-14T13:53:51.131Z,19.37
2023-09-14T13:56:27.108Z,19.25
2023-09-14T13:58:56.993Z,19.29
2023-09-14T14:01:24.135Z,19.29
2023-09-14T14:03:57.100Z,19.38
2023-09-14T14:06:24.092Z,19.44
2023-09-14T14:08:51.067Z,19.55
2023-09-14T14:11:21.166Z,19.80
2023-09-14T14:13:50.873Z,19.90
2023-09-14T14:16:20.595Z,20.00
2023-09-14T14:18:47.541Z,20.06
2023-09-14T14:21:14.463Z,20.26
2023-09-14T14:23:41.217Z,20.18
2023-09-14T14:26:15.563Z,20.11
2023-09-14T14:28:44.519Z,19.83
2023-09-14T14:31:11.913Z,19.57
2023-09-14T14:33:41.447Z,19.67
2023-09-14T14:36:08.107Z,19.73
2023-09-14T14:38:34.779Z,19.63
2023-09-14T14:41:25.948Z,19.51
2023-09-14T14:43:53.519Z,19.49
2023-09-14T14:46:22.249Z,19.69
2023-09-14T14:48:54.828Z,20.05
2023-09-14T14:51:21.804Z,20.42
2023-09-14T14:53:48.818Z,20.80
2023-09-14T14:56:15.886Z,20.85
2023-09-14T14:58:47.658Z,21.02
2023-09-14T15:01:21.155Z,20.94
2023-09-14T15:03:59.403Z,20.65
2023-09-14T15:06:29.107Z,20.37
2023-09-14T15:09:05.464Z,20.31
2023-09-14T15:11:32.191Z,20.16
2023-09-14T15:13:59.683Z,20.05
2023-09-14T15:16:32.333Z,19.82
2023-09-14T15:18:59.285Z,19.44
2023-09-14T15:21:26.459Z,19.15
2023-09-14T15:23:53.342Z,18.93
2023-09-14T15:26:20.145Z,18.75
2023-09-14T15:28:51.104Z,18.55
2023-09-14T15:31:23.080Z,18.46
2023-09-14T15:33:50.360Z,18.35
2023-09-14T15:36:19.282Z,18.42
2023-09-14T15:38:46.764Z,18.41
2023-09-14T15:41:19.619Z,18.35
2023-09-14T15:44:09.209Z,18.22
2023-09-14T15:46:39.633Z,18.14
2023-09-14T15:49:12.107Z,18.05
2023-09-14T15:51:39.407Z,18.04
2023-09-14T15:54:09.167Z,18.12
2023-09-14T15:56:35.905Z,18.03
2023-09-14T15:59:08.121Z,18.04
2023-09-14T16:01:39.987Z,18.02
2023-09-14T16:04:07.518Z,17.91
2023-09-14T16:06:38.977Z,17.83
2023-09-14T16:09:12.003Z,17.69
2023-09-14T16:11:38.798Z,17.67
2023-09-14T16:14:12.641Z,17.62
2023-09-14T16:16:48.725Z,17.59
2023-09-14T16:19:17.160Z,17.56
2023-09-14T16:21:51.033Z,17.43
2023-09-14T16:24:18.072Z,17.37
2023-09-14T16:26:44.892Z,17.24
2023-09-14T16:29:14.659Z,17.24
2023-09-14T16:31:41.906Z,17.14
2023-09-14T16:34:13.310Z,16.96
2023-09-14T16:36:41.267Z,16.89
2023-09-14T16:39:08.542Z,16.87
2023-09-14T16:41:39.923Z,16.89
2023-09-14T16:44:11.596Z,16.87
2023-09-14T16:46:38.834Z,16.79
2023-09-14T16:49:25.489Z,16.73
2023-09-14T16:51:56.742Z,16.67
2023-09-14T16:54:32.415Z,16.57
2023-09-14T16:57:09.364Z,16.48
2023-09-14T16:59:38.224Z,16.34
2023-09-14T17:02:12.355Z,15.99
2023-09-14T17:04:42.132Z,15.82
2023-09-14T17:07:12.404Z,15.53
2023-09-14T17:10:47.491Z,15.44
2023-09-14T17:39:53.662Z,13.44
2023-09-14T17:43:16.477Z,13.38
2023-09-14T17:46:44.579Z,13.26
2023-09-14T17:49:14.302Z,13.05
2023-09-14T17:51:41.152Z,12.98
2023-09-14T17:54:08.108Z,12.89
2023-09-14T17:56:38.847Z,12.81
2023-09-14T17:59:05.518Z,12.71
2023-09-14T18:01:32.380Z,12.68
2023-09-14T18:04:02.551Z,12.64
2023-09-14T18:06:29.619Z,12.54
2023-09-14T18:09:00.640Z,12.45
2023-09-14T18:11:27.510Z,12.41
2023-09-14T18:13:54.463Z,12.33
2023-09-14T18:16:21.167Z,12.29
2023-09-14T18:18:51.112Z,12.29
2023-09-14T18:21:17.821Z,12.24
2023-09-14T18:23:45.639Z,12.22
2023-09-14T18:26:15.753Z,12.20
2023-09-14T18:28:42.413Z,12.16
2023-09-14T18:31:13.519Z,12.15
2023-09-14T18:33:42.903Z,12.12
2023-09-14T18:36:09.577Z,12.08
2023-09-14T18:38:36.598Z,12.07
2023-09-14T18:41:09.831Z,12.07
2023-09-14T18:43:39.648Z,12.08
2023-09-14T18:46:10.967Z,11.99
2023-09-14T18:48:37.886Z,12.01
2023-09-14T18:51:04.784Z,12.05
2023-09-14T18:53:32.406Z,12.08
2023-09-14T18:56:02.855Z,12.05
2023-09-14T19:01:03.607Z,12.03
2023-09-14T19:03:30.535Z,12.02
2023-09-14T19:06:01.279Z,12.04
2023-09-14T19:08:28.124Z,12.00
2023-09-14T19:10:58.304Z,11.97
2023-09-14T19:13:25.049Z,11.93
2023-09-14T19:15:52.716Z,11.89
2023-09-14T19:18:19.894Z,11.88
2023-09-14T19:20:47.964Z,11.87
2023-09-14T19:23:19.880Z,11.93
2023-09-14T19:26:11.714Z,11.87
2023-09-14T19:28:38.580Z,11.83
2023-09-14T19:31:12.670Z,11.82
2023-09-14T19:33:39.391Z,11.80
2023-09-14T19:36:06.193Z,11.77
2023-09-14T19:38:32.925Z,11.75
2023-09-14T19:41:03.781Z,11.74
2023-09-14T19:43:30.431Z,11.71
2023-09-14T19:46:04.436Z,11.68
2023-09-14T19:48:31.447Z,11.64
2023-09-14T19:51:00.193Z,11.63
2023-09-14T19:53:40.239Z,11.58
2023-09-14T19:56:08.870Z,11.53
2023-09-14T19:58:37.525Z,11.54
2023-09-14T20:01:07.949Z,11.52
2023-09-14T20:03:35.372Z,11.45
2023-09-14T20:06:02.265Z,11.43
2023-09-14T20:08:29.988Z,11.41
2023-09-14T20:10:58.826Z,11.40
2023-09-14T20:13:26.052Z,11.38
2023-09-14T20:15:53.342Z,11.35
2023-09-14T20:18:20.643Z,11.34
2023-09-14T20:20:47.314Z,11.35
2023-09-14T20:23:14.060Z,11.32
2023-09-14T20:25:40.837Z,11.32
2023-09-14T20:28:15.230Z,11.32
2023-09-14T20:30:41.973Z,11.31
2023-09-14T20:33:13.188Z,11.29
2023-09-14T20:35:39.908Z,11.22
2023-09-14T20:38:09.114Z,11.22
2023-09-14T20:40:43.253Z,11.20
2023-09-14T20:43:10.036Z,11.23
2023-09-14T20:45:42.442Z,11.14
2023-09-14T20:48:21.364Z,11.10
2023-09-14T20:50:49.831Z,11.12
2023-09-14T20:53:23.016Z,11.15
2023-09-14T20:56:11.381Z,11.14
2023-09-14T20:58:39.477Z,11.08
2023-09-14T21:01:19.591Z,11.08
2023-09-14T21:03:46.486Z,11.05
2023-09-14T21:06:14.390Z,11.03
2023-09-14T21:08:41.376Z,11.02
2023-09-14T21:11:10.627Z,10.99
2023-09-14T21:13:37.351Z,10.95
2023-09-14T21:16:07.903Z,10.95
2023-09-14T21:18:34.746Z,10.89
2023-09-14T21:21:28.248Z,10.87
2023-09-14T21:23:56.289Z,10.77
2023-09-14T21:26:26.152Z,10.76
2023-09-14T21:28:52.815Z,10.75
2023-09-14T21:31:22.507Z,10.74
2023-09-14T21:33:49.139Z,10.67
2023-09-14T21:36:25.450Z,10.60
2023-09-14T21:38:52.272Z,10.54
2023-09-14T21:41:25.062Z,10.51
2023-09-14T21:43:51.722Z,10.48
2023-09-14T21:46:18.432Z,10.44
2023-09-14T21:48:45.248Z,10.40
2023-09-14T21:51:15.302Z,10.40
2023-09-14T21:53:41.930Z,10.41
2023-09-14T21:56:11.062Z,10.43
2023-09-14T21:58:37.761Z,10.41
2023-09-14T22:01:04.542Z,10.48
2023-09-14T22:03:45.043Z,10.46
2023-09-14T22:06:24.317Z,10.47
2023-09-14T22:08:52.999Z,10.46
2023-09-14T22:11:19.644Z,10.44
2023-09-14T22:13:46.405Z,10.46
2023-09-14T22:16:23.573Z,10.50
2023-09-14T22:18:51.766Z,10.50
2023-09-14T22:21:20.757Z,10.49
2023-09-14T22:23:48.684Z,10.48
2023-09-14T22:26:20.433Z,10.50
2023-09-14T22:28:47.580Z,10.52
2023-09-14T22:31:19.205Z,10.51
2023-09-14T22:33:46.119Z,10.53
2023-09-14T22:36:15.961Z,10.48
2023-09-14T22:38:42.717Z,10.49
2023-09-14T22:41:21.328Z,10.50
2023-09-14T22:43:48.028Z,10.48
2023-09-14T22:46:20.849Z,10.51
2023-09-14T22:48:48.744Z,10.53
2023-09-14T22:51:17.971Z,10.51
2023-09-14T22:53:45.392Z,10.51
2023-09-14T22:56:18.781Z,10.51
2023-09-14T22:58:53.203Z,10.49
2023-09-14T23:01:29.221Z,10.49
2023-09-14T23:03:57.410Z,10.47
2023-09-14T23:06:28.145Z,10.44
2023-09-14T23:08:54.790Z,10.39
2023-09-14T23:11:48.009Z,10.42
2023-09-14T23:14:18.858Z,10.33
2023-09-14T23:17:18.053Z,10.35
2023-09-14T23:19:45.055Z,10.34
2023-09-14T23:22:11.883Z,10.36
2023-09-14T23:24:39.437Z,10.36
2023-09-14T23:27:06.348Z,10.35
2023-09-14T23:29:33.195Z,10.29
2023-09-14T23:31:59.937Z,10.29
2023-09-14T23:34:32.877Z,10.29
2023-09-14T23:36:59.996Z,10.28
2023-09-14T23:39:30.059Z,10.29
2023-09-14T23:42:05.356Z,10.27
2023-09-14T23:44:33.628Z,10.30
2023-09-14T23:47:00.388Z,10.20
2023-09-14T23:49:30.873Z,10.25
2023-09-14T23:51:57.690Z,10.25
2023-09-14T23:54:24.391Z,10.21
2023-09-14T23:56:51.515Z,10.19
2023-09-14T23:59:24.482Z,10.20
